Time;durP1;ratioP1;P1;durP2;ratioP2;P2;SDS_P1;SDS_P2;PMS_P1;PMS_P2;Temp;Humidity;BMP_temperature;BMP_pressure;BME280_temperature;BME280_humidity;BME280_pressure;Samples;Min_cycle;Max_cycle;Signal;HPM_P1;HPM_P2
2024/01/13 00:01:10;;;;;;;30.57;14.63;;;;;;;;;;5073735;28;20207;-78
2024/01/13 00:03:55;;;;;;;43.03;19.80;;;;;;;;;;5074433;28;20188;-78
2024/01/13 00:06:23;;;;;;;42.17;19.53;;;;;;;;;;5074095;28;20216;-77
2024/01/13 00:08:50;;;;;;;34.30;17.23;;;;;;;;;;5074696;28;20648;-77
2024/01/13 00:11:17;;;;;;;27.93;14.33;;;;;;;;;;5074392;28;20215;-76
2024/01/13 00:13:45;;;;;;;32.83;14.30;;;;;;;;;;5073811;28;20216;-78
2024/01/13 00:16:12;;;;;;;28.73;15.37;;;;;;;;;;5073395;28;20241;-77
2024/01/13 00:18:39;;;;;;;29.80;14.67;;;;;;;;;;5072885;28;20220;-78
2024/01/13 00:21:07;;;;;;;35.33;15.90;;;;;;;;;;5073086;28;20215;-77
2024/01/13 00:23:36;;;;;;;36.80;17.37;;;;;;;;;;5073084;28;20203;-76
2024/01/13 00:26:04;;;;;;;33.83;14.77;;;;;;;;;;5073176;28;20207;-77
2024/01/13 00:28:31;;;;;;;26.47;12.70;;;;;;;;;;5073193;28;20672;-77
2024/01/13 00:31:06;;;;;;;30.80;13.60;;;;;;;;;;5072979;28;20609;-77
2024/01/13 00:33:35;;;;;;;33.17;16.50;;;;;;;;;;5073242;28;20218;-77
2024/01/13 00:36:03;;;;;;;35.17;16.77;;;;;;;;;;5073740;28;20310;-77
2024/01/13 00:38:31;;;;;;;31.17;16.13;;;;;;;;;;5073504;28;20237;-77
2024/01/13 00:41:04;;;;;;;28.17;14.43;;;;;;;;;;5073432;28;20196;-78
2024/01/13 00:43:34;;;;;;;27.97;14.73;;;;;;;;;;5073134;28;20211;-77
2024/01/13 00:46:01;;;;;;;30.13;15.23;;;;;;;;;;5072207;28;20641;-76
2024/01/13 00:48:28;;;;;;;34.13;16.43;;;;;;;;;;5055661;28;20260;-77
2024/01/13 00:51:08;;;;;;;34.90;16.60;;;;;;;;;;5073484;28;20226;-77
2024/01/13 00:53:36;;;;;;;48.40;19.03;;;;;;;;;;5073025;28;20243;-77
2024/01/13 00:56:04;;;;;;;34.70;16.73;;;;;;;;;;5072966;28;20995;-77
2024/01/13 00:58:31;;;;;;;45.53;19.60;;;;;;;;;;5073316;28;20257;-77
2024/01/13 01:01:10;;;;;;;31.60;16.00;;;;;;;;;;5073721;28;20245;-77
2024/01/13 01:03:39;;;;;;;33.73;15.73;;;;;;;;;;5073612;28;20207;-76
2024/01/13 01:06:06;;;;;;;33.50;16.57;;;;;;;;;;5073015;28;20232;-77
2024/01/13 01:08:34;;;;;;;35.77;18.33;;;;;;;;;;5072673;28;20598;-76
2024/01/13 01:11:07;;;;;;;36.27;16.40;;;;;;;;;;5073053;28;20211;-77
2024/01/13 01:13:35;;;;;;;29.87;14.47;;;;;;;;;;5071846;28;20199;-77
2024/01/13 01:16:03;;;;;;;32.90;14.57;;;;;;;;;;5072888;28;20297;-77
2024/01/13 01:18:31;;;;;;;32.43;15.93;;;;;;;;;;5072547;28;20195;-77
2024/01/13 01:21:12;;;;;;;35.13;16.17;;;;;;;;;;5073151;28;20192;-77
2024/01/13 01:23:41;;;;;;;40.00;18.17;;;;;;;;;;5072751;28;20206;-77
2024/01/13 01:26:08;;;;;;;32.10;15.23;;;;;;;;;;5072782;28;20264;-76
2024/01/13 01:28:36;;;;;;;40.50;17.60;;;;;;;;;;5072574;28;20222;-77
2024/01/13 01:31:04;;;;;;;37.23;15.57;;;;;;;;;;5072640;28;20264;-77
2024/01/13 01:33:32;;;;;;;25.60;12.47;;;;;;;;;;5072704;28;20195;-77
2024/01/13 01:36:00;;;;;;;34.57;16.67;;;;;;;;;;5072293;28;20271;-77
2024/01/13 01:38:27;;;;;;;29.27;15.87;;;;;;;;;;5072531;28;20203;-77
2024/01/13 01:41:10;;;;;;;29.20;13.23;;;;;;;;;;5072720;28;20192;-77
2024/01/13 01:43:38;;;;;;;37.73;17.27;;;;;;;;;;5072464;28;20199;-77
2024/01/13 01:46:06;;;;;;;38.70;17.13;;;;;;;;;;5072625;28;20191;-77
2024/01/13 01:48:37;;;;;;;25.70;12.30;;;;;;;;;;5071247;28;20199;-77
2024/01/13 01:51:10;;;;;;;32.03;17.10;;;;;;;;;;5071482;28;20195;-79
2024/01/13 01:53:39;;;;;;;32.07;16.80;;;;;;;;;;5072179;28;20204;-79
2024/01/13 01:56:18;;;;;;;28.13;13.00;;;;;;;;;;5072400;28;20227;-79
2024/01/13 01:58:46;;;;;;;34.20;18.10;;;;;;;;;;5071101;28;20202;-79
2024/01/13 02:01:14;;;;;;;35.40;15.47;;;;;;;;;;5072456;28;20547;-79
2024/01/13 02:03:42;;;;;;;27.73;12.63;;;;;;;;;;5071228;28;20192;-79
2024/01/13 02:06:10;;;;;;;28.17;13.00;;;;;;;;;;5072551;28;20206;-78
2024/01/13 02:08:37;;;;;;;29.67;13.40;;;;;;;;;;5072898;28;20203;-79
2024/01/13 02:11:10;;;;;;;31.00;15.40;;;;;;;;;;5071301;28;20191;-78
2024/01/13 02:13:39;;;;;;;27.50;13.87;;;;;;;;;;5072293;28;20695;-76
2024/01/13 02:16:08;;;;;;;27.03;13.03;;;;;;;;;;5072196;28;20227;-77
2024/01/13 02:18:36;;;;;;;25.87;14.67;;;;;;;;;;5070979;28;20653;-77
2024/01/13 02:21:09;;;;;;;22.53;10.67;;;;;;;;;;5071321;28;20198;-77
2024/01/13 02:23:37;;;;;;;26.63;13.70;;;;;;;;;;5070903;28;20199;-77
2024/01/13 02:26:05;;;;;;;21.37;11.93;;;;;;;;;;5076167;28;20268;-77
2024/01/13 02:28:33;;;;;;;25.57;11.50;;;;;;;;;;5076121;28;20187;-77
2024/01/13 02:31:14;;;;;;;21.90;12.17;;;;;;;;;;5076009;28;20253;-77
2024/01/13 02:33:45;;;;;;;28.30;12.53;;;;;;;;;;5074593;28;20188;-78
2024/01/13 02:36:13;;;;;;;22.63;12.40;;;;;;;;;;5076078;28;20289;-77
2024/01/13 02:38:40;;;;;;;28.83;14.93;;;;;;;;;;5075592;28;20714;-77
2024/01/13 02:41:07;;;;;;;25.40;14.23;;;;;;;;;;5075785;28;20203;-77
2024/01/13 02:43:36;;;;;;;27.37;14.33;;;;;;;;;;5075592;28;20234;-78
2024/01/13 02:46:04;;;;;;;30.10;13.67;;;;;;;;;;5075560;28;20741;-77
2024/01/13 02:48:37;;;;;;;26.83;12.47;;;;;;;;;;5074323;28;20207;-77
2024/01/13 02:51:11;;;;;;;29.77;13.83;;;;;;;;;;5074606;28;20256;-77
2024/01/13 02:53:39;;;;;;;20.67;10.87;;;;;;;;;;5075554;28;20257;-77
2024/01/13 02:56:06;;;;;;;22.10;12.37;;;;;;;;;;5075371;28;20314;-78
2024/01/13 02:58:33;;;;;;;30.73;14.47;;;;;;;;;;5075253;28;20211;-78
2024/01/13 03:01:12;;;;;;;30.73;14.13;;;;;;;;;;5075165;28;20656;-78
2024/01/13 03:03:39;;;;;;;23.53;12.90;;;;;;;;;;5075178;28;20652;-78
2024/01/13 03:06:08;;;;;;;23.13;12.13;;;;;;;;;;5075303;28;20241;-77
2024/01/13 03:08:36;;;;;;;29.23;14.60;;;;;;;;;;5075164;28;20250;-77
2024/01/13 03:11:09;;;;;;;28.23;14.80;;;;;;;;;;5075253;28;20199;-77
2024/01/13 03:13:37;;;;;;;24.83;13.47;;;;;;;;;;5074247;28;20195;-77
2024/01/13 03:16:08;;;;;;;23.70;11.27;;;;;;;;;;5073795;28;21250;-78
2024/01/13 03:18:36;;;;;;;20.30;11.03;;;;;;;;;;5075076;28;20199;-77
2024/01/13 03:21:09;;;;;;;20.73;11.30;;;;;;;;;;5075068;28;20195;-76
2024/01/13 03:23:37;;;;;;;20.97;11.43;;;;;;;;;;5075038;28;20195;-77
2024/01/13 03:26:05;;;;;;;19.57;10.73;;;;;;;;;;5074930;28;20289;-77
2024/01/13 03:28:32;;;;;;;21.60;11.20;;;;;;;;;;5074948;28;20249;-77
2024/01/13 03:31:11;;;;;;;15.40;8.97;;;;;;;;;;5075761;28;20191;-77
2024/01/13 03:33:43;;;;;;;23.70;12.80;;;;;;;;;;5074819;28;20644;-77
2024/01/13 03:36:11;;;;;;;27.43;12.37;;;;;;;;;;5073851;28;20234;-77
2024/01/13 03:38:39;;;;;;;27.17;14.13;;;;;;;;;;5074641;28;21158;-77
2024/01/13 03:41:17;;;;;;;16.70;10.33;;;;;;;;;;5074765;28;20199;-78
2024/01/13 03:43:44;;;;;;;24.03;13.27;;;;;;;;;;5074806;28;20203;-77
2024/01/13 03:46:12;;;;;;;26.80;13.07;;;;;;;;;;5074698;28;20203;-77
2024/01/13 03:48:40;;;;;;;20.87;9.80;;;;;;;;;;5074242;28;20203;-77
2024/01/13 03:51:08;;;;;;;24.60;11.90;;;;;;;;;;5073290;28;20199;-77
2024/01/13 03:53:36;;;;;;;20.17;10.57;;;;;;;;;;5074363;28;20196;-76
2024/01/13 03:56:04;;;;;;;20.27;10.77;;;;;;;;;;5074212;28;20227;-77
2024/01/13 03:58:33;;;;;;;26.90;13.00;;;;;;;;;;5072688;28;20210;-77
2024/01/13 04:01:02;;;;;;;18.67;10.20;;;;;;;;;;5073026;28;20204;-77
2024/01/13 04:03:29;;;;;;;26.93;13.77;;;;;;;;;;5073871;28;20207;-77
2024/01/13 04:05:58;;;;;;;16.53;9.03;;;;;;;;;;5074139;28;20199;-77
2024/01/13 04:08:26;;;;;;;21.67;11.53;;;;;;;;;;5073930;28;20248;-77
2024/01/13 04:10:53;;;;;;;19.73;11.17;;;;;;;;;;5074208;28;20644;-77
2024/01/13 04:13:20;;;;;;;23.37;11.87;;;;;;;;;;5073822;28;20196;-77
2024/01/13 04:15:47;;;;;;;28.27;14.03;;;;;;;;;;5073781;28;20286;-77
2024/01/13 04:18:15;;;;;;;25.83;11.77;;;;;;;;;;5072661;28;20211;-77
2024/01/13 04:20:42;;;;;;;25.33;13.60;;;;;;;;;;5071335;28;20633;-77
2024/01/13 04:23:10;;;;;;;21.33;11.77;;;;;;;;;;5072503;28;20199;-77
2024/01/13 04:25:37;;;;;;;24.27;13.20;;;;;;;;;;5072614;28;20286;-78
2024/01/13 04:28:04;;;;;;;20.07;10.90;;;;;;;;;;5071266;28;20675;-78
2024/01/13 04:30:31;;;;;;;28.67;13.37;;;;;;;;;;5072445;28;20257;-77
2024/01/13 04:32:59;;;;;;;30.57;14.33;;;;;;;;;;5074200;28;20201;-78
2024/01/13 04:35:28;;;;;;;29.30;15.13;;;;;;;;;;5071485;28;20289;-78
2024/01/13 04:37:55;;;;;;;28.53;14.00;;;;;;;;;;5071663;28;20215;-78
2024/01/13 04:40:23;;;;;;;20.20;10.57;;;;;;;;;;5072341;28;20203;-77
2024/01/13 04:42:50;;;;;;;24.73;12.13;;;;;;;;;;5073385;28;20249;-77
2024/01/13 04:45:17;;;;;;;19.13;10.77;;;;;;;;;;5073313;28;20706;-78
2024/01/13 04:47:45;;;;;;;31.77;14.80;;;;;;;;;;5073547;28;20215;-78
2024/01/13 04:50:12;;;;;;;27.70;13.53;;;;;;;;;;5073219;28;20581;-78
2024/01/13 04:52:40;;;;;;;23.03;12.77;;;;;;;;;;5073072;28;20644;-78
2024/01/13 04:55:07;;;;;;;26.10;13.57;;;;;;;;;;5073449;28;20210;-77
2024/01/13 04:57:35;;;;;;;19.47;10.77;;;;;;;;;;5072873;28;20576;-77
2024/01/13 05:00:04;;;;;;;25.83;13.93;;;;;;;;;;5073360;28;20257;-77
2024/01/13 05:02:33;;;;;;;20.00;11.17;;;;;;;;;;5073149;28;20618;-78
2024/01/13 05:05:12;;;;;;;22.27;10.77;;;;;;;;;;5072066;28;20682;-77
2024/01/13 05:07:40;;;;;;;19.30;11.20;;;;;;;;;;5072801;28;20207;-78
2024/01/13 05:10:08;;;;;;;19.53;12.03;;;;;;;;;;5072860;28;20665;-78
2024/01/13 05:12:35;;;;;;;27.27;9.40;;;;;;;;;;5072829;28;20222;-77
2024/01/13 05:15:02;;;;;;;21.37;11.20;;;;;;;;;;5073143;28;20269;-77
2024/01/13 05:17:30;;;;;;;15.97;9.23;;;;;;;;;;5072550;28;20219;-78
2024/01/13 05:19:57;;;;;;;23.00;11.53;;;;;;;;;;5072910;28;20219;-78
2024/01/13 05:22:24;;;;;;;15.47;9.57;;;;;;;;;;5072587;28;20215;-78
2024/01/13 05:24:51;;;;;;;22.93;11.23;;;;;;;;;;5072815;28;20656;-78
2024/01/13 05:27:19;;;;;;;24.90;12.13;;;;;;;;;;5072841;28;20207;-78
2024/01/13 05:29:46;;;;;;;25.80;12.00;;;;;;;;;;5072753;28;20207;-78
2024/01/13 05:32:14;;;;;;;23.67;13.10;;;;;;;;;;5072855;28;20207;-77
2024/01/13 05:34:41;;;;;;;18.23;11.77;;;;;;;;;;5073052;28;20226;-78
2024/01/13 05:37:09;;;;;;;20.27;10.17;;;;;;;;;;5072399;28;20244;-77
2024/01/13 05:39:36;;;;;;;21.27;11.30;;;;;;;;;;5072714;28;20203;-79
2024/01/13 05:42:03;;;;;;;23.67;11.57;;;;;;;;;;5072628;28;20211;-77
2024/01/13 05:44:30;;;;;;;17.67;10.87;;;;;;;;;;5072393;28;20674;-77
2024/01/13 05:46:58;;;;;;;20.17;11.60;;;;;;;;;;5072637;28;20207;-78
2024/01/13 05:49:25;;;;;;;22.63;12.10;;;;;;;;;;5072325;28;20320;-77
2024/01/13 05:51:52;;;;;;;19.77;10.70;;;;;;;;;;5072309;28;20664;-77
2024/01/13 05:54:19;;;;;;;20.27;11.77;;;;;;;;;;5072501;28;20215;-77
2024/01/13 05:56:47;;;;;;;22.03;12.37;;;;;;;;;;5072564;28;20206;-77
2024/01/13 05:59:14;;;;;;;23.30;10.93;;;;;;;;;;5073444;28;20218;-78
2024/01/13 06:01:41;;;;;;;22.40;11.23;;;;;;;;;;5076408;28;20211;-77
2024/01/13 06:04:09;;;;;;;21.40;12.23;;;;;;;;;;5076585;28;20249;-77
2024/01/13 06:06:36;;;;;;;21.50;12.27;;;;;;;;;;5076075;28;20550;-77
2024/01/13 06:09:03;;;;;;;20.97;11.73;;;;;;;;;;5075990;28;20215;-77
2024/01/13 06:11:31;;;;;;;25.27;12.07;;;;;;;;;;5076230;28;21274;-77
2024/01/13 06:13:59;;;;;;;41.43;23.93;;;;;;;;;;5076066;28;20230;-77
2024/01/13 06:16:26;;;;;;;50.43;30.00;;;;;;;;;;5074821;28;20219;-78
2024/01/13 06:18:53;;;;;;;22.17;11.73;;;;;;;;;;5075735;28;20233;-78
2024/01/13 06:21:21;;;;;;;19.33;10.90;;;;;;;;;;5076108;28;20199;-77
2024/01/13 06:23:49;;;;;;;18.00;10.67;;;;;;;;;;5076368;28;20294;-77
2024/01/13 06:26:16;;;;;;;22.73;11.23;;;;;;;;;;5076877;28;20195;-79
2024/01/13 06:28:43;;;;;;;18.10;10.67;;;;;;;;;;5075669;28;20309;-77
2024/01/13 06:31:10;;;;;;;20.60;11.13;;;;;;;;;;5075945;28;20187;-77
2024/01/13 06:33:38;;;;;;;23.43;13.00;;;;;;;;;;5057821;28;20233;-77
2024/01/13 06:36:05;;;;;;;21.63;12.13;;;;;;;;;;5074698;28;20284;-77
2024/01/13 06:38:32;;;;;;;18.87;11.70;;;;;;;;;;5055179;28;20270;-76
2024/01/13 06:41:00;;;;;;;20.90;10.77;;;;;;;;;;5056889;28;20281;-77
2024/01/13 06:43:27;;;;;;;17.10;10.37;;;;;;;;;;5064539;28;20244;-77
2024/01/13 06:45:54;;;;;;;19.10;10.73;;;;;;;;;;5072910;28;20231;-77
2024/01/13 06:48:21;;;;;;;21.67;11.77;;;;;;;;;;5061865;28;20267;-77
2024/01/13 06:50:49;;;;;;;20.63;10.07;;;;;;;;;;5055047;28;20228;-77
2024/01/13 06:53:21;;;;;;;19.77;10.43;;;;;;;;;;5054638;28;20685;-76
2024/01/13 06:55:50;;;;;;;18.30;9.17;;;;;;;;;;5054769;28;20227;-77
2024/01/13 06:58:17;;;;;;;19.20;10.00;;;;;;;;;;5053070;28;20268;-77
2024/01/13 07:00:44;;;;;;;20.37;10.73;;;;;;;;;;5053609;28;20236;-78
2024/01/13 07:03:11;;;;;;;18.13;10.20;;;;;;;;;;5054540;28;20224;-77
2024/01/13 07:05:39;;;;;;;11.30;7.43;;;;;;;;;;5054994;28;20269;-77
2024/01/13 07:08:08;;;;;;;11.37;6.63;;;;;;;;;;5053328;28;20236;-76
2024/01/13 07:10:36;;;;;;;10.40;6.10;;;;;;;;;;5053455;28;20719;-77
2024/01/13 07:13:03;;;;;;;8.23;4.50;;;;;;;;;;5054499;28;20924;-77
2024/01/13 07:15:30;;;;;;;8.37;4.87;;;;;;;;;;5054834;28;20685;-77
2024/01/13 07:17:59;;;;;;;8.63;4.27;;;;;;;;;;5063557;28;20227;-77
2024/01/13 07:20:27;;;;;;;5.67;4.00;;;;;;;;;;5073368;28;20643;-76
2024/01/13 07:22:54;;;;;;;6.03;3.57;;;;;;;;;;5070729;28;20270;-77
2024/01/13 07:25:21;;;;;;;6.97;3.50;;;;;;;;;;5071900;28;20215;-77
2024/01/13 07:27:48;;;;;;;4.63;3.50;;;;;;;;;;5073761;28;20277;-77
2024/01/13 07:30:16;;;;;;;4.90;3.13;;;;;;;;;;5074875;28;20230;-77
2024/01/13 07:32:45;;;;;;;6.87;3.50;;;;;;;;;;5074190;28;20235;-77
2024/01/13 07:35:13;;;;;;;8.17;3.10;;;;;;;;;;5074237;28;20231;-77
2024/01/13 07:37:40;;;;;;;6.77;3.77;;;;;;;;;;5074532;28;20239;-77
2024/01/13 07:40:08;;;;;;;5.07;3.33;;;;;;;;;;5073596;28;20235;-77
2024/01/13 07:42:39;;;;;;;6.33;4.20;;;;;;;;;;5074719;28;20255;-77
2024/01/13 07:45:07;;;;;;;8.47;3.67;;;;;;;;;;5073096;28;20676;-77
2024/01/13 07:47:34;;;;;;;6.33;3.50;;;;;;;;;;5066770;28;20756;-77
2024/01/13 07:50:03;;;;;;;7.40;3.53;;;;;;;;;;5054427;28;20228;-77
2024/01/13 07:52:30;;;;;;;8.77;3.93;;;;;;;;;;5054431;28;20247;-76
2024/01/13 07:54:58;;;;;;;7.03;4.00;;;;;;;;;;5053693;28;20627;-77
2024/01/13 07:57:27;;;;;;;9.20;4.53;;;;;;;;;;5053882;28;20223;-77
2024/01/13 07:59:56;;;;;;;7.47;3.80;;;;;;;;;;5053659;28;20246;-77
2024/01/13 08:02:23;;;;;;;6.70;3.67;;;;;;;;;;5053427;28;20236;-77
2024/01/13 08:04:50;;;;;;;8.63;3.60;;;;;;;;;;5053886;28;20232;-77
2024/01/13 08:07:17;;;;;;;5.97;3.17;;;;;;;;;;5053494;28;20324;-77
2024/01/13 08:09:46;;;;;;;7.20;3.87;;;;;;;;;;5059757;28;20715;-77
2024/01/13 08:12:13;;;;;;;9.23;3.47;;;;;;;;;;5066835;28;20622;-78
2024/01/13 08:14:41;;;;;;;9.00;4.03;;;;;;;;;;5072691;28;20235;-77
2024/01/13 08:17:08;;;;;;;9.03;3.57;;;;;;;;;;5072814;28;20219;-76
2024/01/13 08:19:37;;;;;;;7.37;3.50;;;;;;;;;;5071521;28;20617;-77
2024/01/13 08:22:06;;;;;;;7.87;3.70;;;;;;;;;;5072712;28;20231;-77
2024/01/13 08:24:33;;;;;;;6.67;3.83;;;;;;;;;;5071589;28;20723;-77
2024/01/13 08:27:00;;;;;;;7.80;4.10;;;;;;;;;;5063717;28;20263;-77
2024/01/13 08:29:28;;;;;;;6.83;3.60;;;;;;;;;;5051255;28;20231;-77
2024/01/13 08:31:55;;;;;;;7.03;3.83;;;;;;;;;;5050322;28;20228;-77
2024/01/13 08:34:23;;;;;;;6.73;3.60;;;;;;;;;;5055138;28;20224;-77
2024/01/13 08:36:50;;;;;;;7.43;4.23;;;;;;;;;;5069495;28;20430;-77
2024/01/13 08:39:17;;;;;;;12.57;4.80;;;;;;;;;;5071549;28;20243;-76
2024/01/13 08:41:45;;;;;;;5.07;3.37;;;;;;;;;;5053543;28;20224;-77
2024/01/13 08:44:12;;;;;;;9.33;4.20;;;;;;;;;;5070386;28;20288;-77
2024/01/13 08:46:39;;;;;;;6.53;3.40;;;;;;;;;;5069977;28;20701;-77
2024/01/13 08:49:08;;;;;;;5.40;3.70;;;;;;;;;;5058593;28;20277;-77
2024/01/13 08:51:35;;;;;;;9.33;3.47;;;;;;;;;;5060575;28;20245;-76
2024/01/13 08:54:03;;;;;;;5.07;2.90;;;;;;;;;;5070817;28;20216;-77
2024/01/13 08:56:36;;;;;;;5.10;2.70;;;;;;;;;;5070765;28;20238;-77
2024/01/13 08:59:08;;;;;;;5.83;2.90;;;;;;;;;;5060695;28;20240;-78
2024/01/13 09:01:36;;;;;;;7.23;2.93;;;;;;;;;;5061732;28;20223;-76
2024/01/13 09:04:10;;;;;;;5.03;2.63;;;;;;;;;;5072075;28;20269;-77
2024/01/13 09:06:40;;;;;;;6.50;3.17;;;;;;;;;;5052194;28;20339;-77
2024/01/13 09:09:08;;;;;;;5.93;3.13;;;;;;;;;;5035432;28;20215;-76
2024/01/13 09:11:37;;;;;;;11.00;3.67;;;;;;;;;;5071189;28;20247;-76
2024/01/13 09:14:10;;;;;;;7.80;3.13;;;;;;;;;;5073659;28;20229;-77
2024/01/13 09:16:39;;;;;;;5.90;3.17;;;;;;;;;;5071003;28;20330;-77
2024/01/13 09:19:08;;;;;;;5.77;2.93;;;;;;;;;;5071091;28;20235;-77
2024/01/13 09:21:37;;;;;;;8.23;3.50;;;;;;;;;;5070762;28;20369;-76
2024/01/13 09:24:11;;;;;;;12.50;4.60;;;;;;;;;;5055863;28;20216;-76
2024/01/13 09:26:45;;;;;;;9.77;4.20;;;;;;;;;;5074064;28;20231;-77
2024/01/13 09:29:17;;;;;;;9.43;4.03;;;;;;;;;;5071495;28;20218;-76
2024/01/13 09:31:48;;;;;;;12.30;4.80;;;;;;;;;;5069732;28;20296;-76
2024/01/13 09:34:16;;;;;;;11.77;3.87;;;;;;;;;;5070198;28;20223;-76
2024/01/13 09:36:46;;;;;;;17.87;6.43;;;;;;;;;;5071452;28;20253;-76
2024/01/13 09:39:20;;;;;;;21.80;4.80;;;;;;;;;;5071079;28;20240;-76
2024/01/13 09:41:49;;;;;;;16.70;3.60;;;;;;;;;;5071008;28;20737;-76
2024/01/13 09:44:21;;;;;;;9.00;4.10;;;;;;;;;;5071472;28;20227;-76
2024/01/13 09:46:51;;;;;;;6.10;2.70;;;;;;;;;;5070041;28;20250;-76
2024/01/13 09:49:21;;;;;;;7.10;3.23;;;;;;;;;;5071430;28;20223;-76
2024/01/13 09:51:48;;;;;;;6.40;2.87;;;;;;;;;;5070902;28;20273;-77
2024/01/13 09:54:23;;;;;;;6.30;2.83;;;;;;;;;;5070360;28;20606;-76
2024/01/13 09:56:51;;;;;;;6.60;2.70;;;;;;;;;;5071261;28;20707;-76
2024/01/13 09:59:22;;;;;;;3.40;2.30;;;;;;;;;;5071284;28;20223;-76
2024/01/13 10:01:51;;;;;;;5.90;2.23;;;;;;;;;;5069698;28;20240;-76
2024/01/13 10:04:19;;;;;;;7.50;2.47;;;;;;;;;;5054033;28;20215;-77
2024/01/13 10:06:47;;;;;;;6.60;2.20;;;;;;;;;;5071146;28;20318;-77
2024/01/13 10:09:16;;;;;;;5.20;2.53;;;;;;;;;;5068995;28;20234;-76
2024/01/13 10:12:04;;;;;;;6.47;3.10;;;;;;;;;;5067852;28;20239;-76
2024/01/13 10:14:35;;;;;;;7.20;2.80;;;;;;;;;;5068430;28;20555;-76
2024/01/13 10:17:03;;;;;;;7.73;3.00;;;;;;;;;;5072041;28;20239;-77
2024/01/13 10:19:50;;;;;;;6.17;3.03;;;;;;;;;;5071343;28;20292;-77
2024/01/13 10:22:18;;;;;;;7.90;2.47;;;;;;;;;;5072338;28;20242;-77
2024/01/13 10:24:45;;;;;;;8.97;3.23;;;;;;;;;;5072450;28;20253;-77
2024/01/13 10:27:12;;;;;;;7.37;3.40;;;;;;;;;;5072422;28;20246;-76
2024/01/13 10:29:43;;;;;;;8.43;3.20;;;;;;;;;;5071192;28;20247;-75
2024/01/13 10:32:12;;;;;;;6.83;2.97;;;;;;;;;;5053014;28;20279;-76
2024/01/13 10:34:47;;;;;;;8.00;3.07;;;;;;;;;;5050785;28;20273;-77
2024/01/13 10:37:15;;;;;;;9.93;3.63;;;;;;;;;;5049843;28;20239;-77
2024/01/13 10:39:42;;;;;;;6.37;2.73;;;;;;;;;;5051435;28;20235;-79
2024/01/13 10:42:10;;;;;;;5.33;2.73;;;;;;;;;;5067390;28;20234;-79
2024/01/13 10:44:43;;;;;;;4.73;3.20;;;;;;;;;;5071004;28;20600;-79
2024/01/13 10:47:14;;;;;;;8.40;2.93;;;;;;;;;;5054338;28;20571;-79
2024/01/13 10:49:42;;;;;;;3.70;2.53;;;;;;;;;;5074257;28;20215;-78
2024/01/13 10:52:12;;;;;;;4.60;2.70;;;;;;;;;;5075666;28;20219;-80
2024/01/13 10:54:39;;;;;;;7.70;3.00;;;;;;;;;;5075051;28;20231;-79
2024/01/13 10:57:08;;;;;;;8.10;4.33;;;;;;;;;;5075175;28;20231;-78
2024/01/13 10:59:36;;;;;;;15.50;6.53;;;;;;;;;;5074353;28;20243;-78
2024/01/13 11:02:10;;;;;;;9.97;4.17;;;;;;;;;;5074459;28;20218;-78
2024/01/13 11:04:41;;;;;;;8.97;3.70;;;;;;;;;;5075228;28;20238;-78
2024/01/13 11:07:08;;;;;;;7.60;4.00;;;;;;;;;;5075403;28;20245;-78
2024/01/13 11:09:36;;;;;;;5.67;2.60;;;;;;;;;;5074744;28;20624;-78
2024/01/13 11:12:09;;;;;;;6.80;3.20;;;;;;;;;;5075269;28;20219;-79
2024/01/13 11:14:43;;;;;;;14.83;5.60;;;;;;;;;;5074021;28;20235;-78
2024/01/13 11:17:11;;;;;;;15.33;5.10;;;;;;;;;;5058101;28;20704;-78
2024/01/13 11:19:41;;;;;;;17.23;5.30;;;;;;;;;;5073857;28;20335;-78
2024/01/13 11:22:35;;;;;;;4.50;2.90;;;;;;;;;;5075589;28;20227;-78
2024/01/13 11:25:24;;;;;;;9.07;2.87;;;;;;;;;;5073695;28;21213;-78
2024/01/13 11:27:53;;;;;;;6.27;2.90;;;;;;;;;;5073486;28;20734;-78
2024/01/13 11:30:39;;;;;;;7.20;3.17;;;;;;;;;;5073146;28;20314;-78
2024/01/13 11:33:10;;;;;;;5.33;2.97;;;;;;;;;;5074221;28;20272;-78
2024/01/13 11:35:38;;;;;;;7.90;3.67;;;;;;;;;;5073329;28;20235;-81
2024/01/13 11:38:07;;;;;;;10.70;3.63;;;;;;;;;;5075161;28;20215;-80
2024/01/13 11:40:35;;;;;;;10.43;3.53;;;;;;;;;;5074699;28;20246;-80
2024/01/13 11:43:09;;;;;;;6.90;3.00;;;;;;;;;;5075100;28;20211;-80
2024/01/13 11:45:41;;;;;;;9.23;3.27;;;;;;;;;;5055961;28;20254;-79
2024/01/13 11:48:30;;;;;;;8.27;3.97;;;;;;;;;;5074459;28;20230;-80
2024/01/13 11:50:58;;;;;;;7.30;3.33;;;;;;;;;;5068609;28;20303;-79
2024/01/13 11:53:39;;;;;;;14.60;5.53;;;;;;;;;;5074450;28;20734;-81
2024/01/13 11:56:09;;;;;;;25.83;7.70;;;;;;;;;;5073096;28;20239;-80
2024/01/13 11:58:37;;;;;;;15.63;6.07;;;;;;;;;;5071886;28;20692;-79
2024/01/13 12:01:09;;;;;;;16.57;6.03;;;;;;;;;;5074366;28;20254;-79
2024/01/13 12:03:40;;;;;;;14.00;5.53;;;;;;;;;;5074048;28;20218;-79
2024/01/13 12:06:09;;;;;;;21.60;6.17;;;;;;;;;;5072647;28;20215;-81
2024/01/13 12:08:36;;;;;;;13.77;4.83;;;;;;;;;;5072477;28;20232;-79
2024/01/13 12:11:05;;;;;;;10.13;4.03;;;;;;;;;;5074037;28;20699;-79
2024/01/13 12:13:32;;;;;;;11.63;4.27;;;;;;;;;;5073391;28;20226;-79
2024/01/13 12:16:08;;;;;;;7.87;4.17;;;;;;;;;;5073981;28;20684;-79
2024/01/13 12:18:36;;;;;;;6.80;3.70;;;;;;;;;;5073574;28;20223;-79
2024/01/13 12:21:05;;;;;;;19.67;7.27;;;;;;;;;;5074095;28;20231;-79
2024/01/13 12:23:34;;;;;;;18.80;8.07;;;;;;;;;;5072381;28;20548;-79
2024/01/13 12:26:02;;;;;;;17.60;7.70;;;;;;;;;;5072489;28;20231;-79
2024/01/13 12:28:41;;;;;;;12.60;4.77;;;;;;;;;;5073194;28;20230;-80
2024/01/13 12:31:10;;;;;;;15.57;6.43;;;;;;;;;;5056351;28;20231;-79
2024/01/13 12:33:37;;;;;;;20.53;7.77;;;;;;;;;;5072044;28;20273;-80
2024/01/13 12:36:10;;;;;;;32.50;12.03;;;;;;;;;;5073275;28;20242;-80
2024/01/13 12:38:38;;;;;;;21.53;9.37;;;;;;;;;;5072330;28;20227;-79
2024/01/13 12:41:06;;;;;;;19.93;7.30;;;;;;;;;;5073342;28;20728;-79
2024/01/13 12:43:38;;;;;;;20.03;7.10;;;;;;;;;;5071464;28;20250;-79
2024/01/13 12:46:05;;;;;;;13.03;5.80;;;;;;;;;;5072766;28;20284;-79
2024/01/13 12:48:33;;;;;;;22.43;7.27;;;;;;;;;;5072783;28;20238;-79
2024/01/13 12:51:14;;;;;;;8.43;4.70;;;;;;;;;;5073243;28;20233;-80
2024/01/13 12:53:45;;;;;;;10.00;4.93;;;;;;;;;;5073237;28;20745;-80
2024/01/13 12:56:13;;;;;;;20.13;8.33;;;;;;;;;;5071627;28;20298;-80
2024/01/13 12:58:41;;;;;;;70.80;27.07;;;;;;;;;;5071308;28;20216;-80
2024/01/13 13:01:08;;;;;;;27.03;12.23;;;;;;;;;;5072861;28;20231;-80
2024/01/13 13:03:36;;;;;;;42.77;16.23;;;;;;;;;;5072686;28;20265;-80
2024/01/13 13:06:04;;;;;;;50.37;19.37;;;;;;;;;;5073295;28;20280;-80
2024/01/13 13:08:32;;;;;;;32.33;14.43;;;;;;;;;;5072647;28;20721;-80
2024/01/13 13:10:59;;;;;;;28.20;11.30;;;;;;;;;;5072802;28;20238;-80
2024/01/13 13:13:29;;;;;;;28.73;13.73;;;;;;;;;;5067096;28;20223;-80
2024/01/13 13:15:56;;;;;;;31.60;15.03;;;;;;;;;;5072194;28;20289;-80
2024/01/13 13:18:24;;;;;;;27.83;12.47;;;;;;;;;;5072225;28;20720;-81
2024/01/13 13:20:52;;;;;;;28.00;14.60;;;;;;;;;;5071714;28;20255;-80
2024/01/13 13:23:20;;;;;;;25.10;13.67;;;;;;;;;;5071251;28;20611;-80
2024/01/13 13:25:47;;;;;;;29.67;13.97;;;;;;;;;;5072063;28;20219;-80
2024/01/13 13:28:16;;;;;;;34.47;15.47;;;;;;;;;;5071404;28;20235;-80
2024/01/13 13:30:43;;;;;;;31.73;15.73;;;;;;;;;;5072129;28;20219;-80
2024/01/13 13:33:12;;;;;;;36.03;17.00;;;;;;;;;;5071378;28;20231;-80
2024/01/13 13:35:39;;;;;;;33.33;14.60;;;;;;;;;;5068086;28;20734;-80
2024/01/13 13:38:07;;;;;;;43.10;15.77;;;;;;;;;;5060258;28;20239;-79
2024/01/13 13:40:36;;;;;;;30.97;14.53;;;;;;;;;;5069312;28;20223;-80
2024/01/13 13:43:03;;;;;;;37.23;14.13;;;;;;;;;;5070378;28;20219;-80
2024/01/13 13:45:30;;;;;;;35.97;15.20;;;;;;;;;;5072138;28;20231;-80
2024/01/13 13:47:58;;;;;;;48.47;15.50;;;;;;;;;;5056523;28;20274;-77
2024/01/13 13:50:29;;;;;;;32.07;13.20;;;;;;;;;;5052293;28;20231;-77
2024/01/13 13:52:57;;;;;;;32.30;13.90;;;;;;;;;;5059408;28;20208;-77
2024/01/13 13:55:24;;;;;;;35.07;15.47;;;;;;;;;;5071531;28;20943;-77
2024/01/13 13:57:55;;;;;;;36.17;13.77;;;;;;;;;;5071442;28;20215;-77
2024/01/13 14:00:24;;;;;;;27.17;13.87;;;;;;;;;;5072716;28;20250;-77
2024/01/13 14:02:52;;;;;;;24.13;12.87;;;;;;;;;;5072329;28;20757;-77
2024/01/13 14:05:19;;;;;;;41.77;15.47;;;;;;;;;;5073127;28;20296;-77
2024/01/13 14:07:47;;;;;;;33.97;14.50;;;;;;;;;;5071155;28;20272;-77
2024/01/13 14:10:15;;;;;;;28.17;13.13;;;;;;;;;;5071632;28;20239;-78
2024/01/13 14:12:42;;;;;;;28.20;14.97;;;;;;;;;;5069948;28;20215;-77
2024/01/13 14:15:09;;;;;;;33.03;14.67;;;;;;;;;;5071660;28;20583;-77
2024/01/13 14:17:45;;;;;;;31.37;13.43;;;;;;;;;;5072291;28;20215;-78
2024/01/13 14:20:13;;;;;;;39.90;16.03;;;;;;;;;;5071587;28;20243;-78
2024/01/13 14:22:51;;;;;;;44.40;18.27;;;;;;;;;;5070438;28;20264;-75
2024/01/13 14:25:19;;;;;;;34.87;14.20;;;;;;;;;;5074687;28;20636;-76
2024/01/13 14:27:47;;;;;;;32.07;13.87;;;;;;;;;;5073389;28;20230;-75
2024/01/13 14:30:14;;;;;;;29.30;12.73;;;;;;;;;;5075668;28;20235;-75
2024/01/13 14:32:42;;;;;;;24.43;11.67;;;;;;;;;;5075504;28;20286;-75
2024/01/13 14:35:11;;;;;;;34.90;13.97;;;;;;;;;;5075481;28;20538;-77
2024/01/13 14:37:48;;;;;;;21.90;12.33;;;;;;;;;;5074104;28;20222;-77